sensor_id;sensor_type;location;lat;lon;timestamp;pressure;altitude;pressure_sealevel;temperature;humidity
49545;BME280;74870;42.636;23.302;2024-02-26T00:01:25;92695.50;;;8.82;66.49
49545;BME280;74870;42.636;23.302;2024-02-26T00:03:50;92697.75;;;8.88;65.81
49545;BME280;74870;42.636;23.302;2024-02-26T00:06:15;92692.09;;;8.81;65.76
49545;BME280;74870;42.636;23.302;2024-02-26T00:08:41;92679.19;;;8.85;65.39
49545;BME280;74870;42.636;23.302;2024-02-26T00:11:06;92679.78;;;8.95;65.11
49545;BME280;74870;42.636;23.302;2024-02-26T00:13:32;92689.59;;;9.03;65.08
49545;BME280;74870;42.636;23.302;2024-02-26T00:15:57;92693.19;;;9.07;65.19
49545;BME280;74870;42.636;23.302;2024-02-26T00:18:22;92695.25;;;9.10;65.02
49545;BME280;74870;42.636;23.302;2024-02-26T00:20:48;92689.03;;;9.06;65.14
49545;BME280;74870;42.636;23.302;2024-02-26T00:23:16;92682.34;;;9.00;65.28
49545;BME280;74870;42.636;23.302;2024-02-26T00:25:41;92679.72;;;9.00;65.38
49545;BME280;74870;42.636;23.302;2024-02-26T00:28:09;92683.59;;;9.03;65.33
49545;BME280;74870;42.636;23.302;2024-02-26T00:30:35;92674.19;;;9.02;65.65
49545;BME280;74870;42.636;23.302;2024-02-26T00:33:00;92671.94;;;8.95;65.66
49545;BME280;74870;42.636;23.302;2024-02-26T00:35:26;92671.84;;;9.14;65.49
49545;BME280;74870;42.636;23.302;2024-02-26T00:37:51;92673.59;;;9.18;65.84
49545;BME280;74870;42.636;23.302;2024-02-26T00:40:17;92674.66;;;9.04;66.27
49545;BME280;74870;42.636;23.302;2024-02-26T00:42:42;92666.13;;;8.98;66.96
49545;BME280;74870;42.636;23.302;2024-02-26T00:45:11;92650.22;;;8.95;66.81
49545;BME280;74870;42.636;23.302;2024-02-26T00:47:37;92660.59;;;9.13;66.92
49545;BME280;74870;42.636;23.302;2024-02-26T00:50:02;92667.97;;;9.11;67.53
49545;BME280;74870;42.636;23.302;2024-02-26T00:52:28;92660.22;;;9.20;67.65
49545;BME280;74870;42.636;23.302;2024-02-26T00:54:53;92658.25;;;9.25;67.85
49545;BME280;74870;42.636;23.302;2024-02-26T00:57:18;92655.25;;;9.32;68.01
49545;BME280;74870;42.636;23.302;2024-02-26T00:59:44;92639.13;;;9.39;67.53
49545;BME280;74870;42.636;23.302;2024-02-26T01:02:09;92644.84;;;9.41;67.73
49545;BME280;74870;42.636;23.302;2024-02-26T01:04:35;92655.44;;;9.49;67.34
49545;BME280;74870;42.636;23.302;2024-02-26T01:07:00;92644.34;;;9.52;67.29
49545;BME280;74870;42.636;23.302;2024-02-26T01:09:25;92637.75;;;9.55;67.16
49545;BME280;74870;42.636;23.302;2024-02-26T01:11:51;92639.19;;;9.61;66.91
49545;BME280;74870;42.636;23.302;2024-02-26T01:14:16;92640.44;;;9.63;66.72
49545;BME280;74870;42.636;23.302;2024-02-26T01:16:42;92641.16;;;9.55;67.41
49545;BME280;74870;42.636;23.302;2024-02-26T01:19:07;92642.09;;;9.59;67.07
49545;BME280;74870;42.636;23.302;2024-02-26T01:21:32;92641.41;;;9.54;67.24
49545;BME280;74870;42.636;23.302;2024-02-26T01:23:58;92645.69;;;9.63;66.67
49545;BME280;74870;42.636;23.302;2024-02-26T01:26:23;92641.19;;;9.64;66.69
49545;BME280;74870;42.636;23.302;2024-02-26T01:28:48;92632.03;;;9.53;67.25
49545;BME280;74870;42.636;23.302;2024-02-26T01:31:14;92639.59;;;9.54;67.29
49545;BME280;74870;42.636;23.302;2024-02-26T01:33:39;92631.41;;;9.56;67.01
49545;BME280;74870;42.636;23.302;2024-02-26T01:36:05;92636.59;;;9.33;67.63
49545;BME280;74870;42.636;23.302;2024-02-26T01:38:31;92635.72;;;9.38;67.63
49545;BME280;74870;42.636;23.302;2024-02-26T01:40:56;92634.69;;;9.39;67.74
49545;BME280;74870;42.636;23.302;2024-02-26T01:43:22;92633.56;;;9.54;67.18
49545;BME280;74870;42.636;23.302;2024-02-26T01:45:47;92631.72;;;9.54;67.09
49545;BME280;74870;42.636;23.302;2024-02-26T01:48:13;92624.03;;;9.22;68.33
49545;BME280;74870;42.636;23.302;2024-02-26T01:50:39;92630.31;;;9.35;68.16
49545;BME280;74870;42.636;23.302;2024-02-26T01:53:06;92627.31;;;9.41;67.85
49545;BME280;74870;42.636;23.302;2024-02-26T01:55:32;92617.59;;;9.28;68.57
49545;BME280;74870;42.636;23.302;2024-02-26T01:57:58;92632.53;;;9.41;68.33
49545;BME280;74870;42.636;23.302;2024-02-26T02:00:24;92623.03;;;9.45;68.37
49545;BME280;74870;42.636;23.302;2024-02-26T02:02:50;92623.69;;;9.51;68.07
49545;BME280;74870;42.636;23.302;2024-02-26T02:05:16;92627.75;;;9.57;68.04
49545;BME280;74870;42.636;23.302;2024-02-26T02:07:45;92626.47;;;9.54;67.81
49545;BME280;74870;42.636;23.302;2024-02-26T02:10:12;92604.78;;;9.40;67.66
49545;BME280;74870;42.636;23.302;2024-02-26T02:12:38;92625.47;;;9.64;67.16
49545;BME280;74870;42.636;23.302;2024-02-26T02:15:05;92617.00;;;9.45;68.03
49545;BME280;74870;42.636;23.302;2024-02-26T02:17:31;92615.38;;;9.35;68.17
49545;BME280;74870;42.636;23.302;2024-02-26T02:19:57;92603.63;;;9.32;67.92
49545;BME280;74870;42.636;23.302;2024-02-26T02:22:22;92615.44;;;9.44;67.90
49545;BME280;74870;42.636;23.302;2024-02-26T02:24:49;92611.47;;;9.46;67.85
49545;BME280;74870;42.636;23.302;2024-02-26T02:27:14;92619.91;;;9.43;68.18
49545;BME280;74870;42.636;23.302;2024-02-26T02:29:40;92613.19;;;9.51;67.80
49545;BME280;74870;42.636;23.302;2024-02-26T02:32:06;92617.84;;;9.54;67.86
49545;BME280;74870;42.636;23.302;2024-02-26T02:34:32;92618.53;;;9.59;67.76
49545;BME280;74870;42.636;23.302;2024-02-26T02:36:59;92628.22;;;9.59;67.89
49545;BME280;74870;42.636;23.302;2024-02-26T02:39:24;92624.75;;;9.50;67.19
49545;BME280;74870;42.636;23.302;2024-02-26T02:41:50;92620.56;;;9.49;67.51
49545;BME280;74870;42.636;23.302;2024-02-26T02:44:15;92612.72;;;9.49;67.87
49545;BME280;74870;42.636;23.302;2024-02-26T02:46:40;92614.63;;;9.57;67.73
49545;BME280;74870;42.636;23.302;2024-02-26T02:49:09;92632.84;;;9.62;68.15
49545;BME280;74870;42.636;23.302;2024-02-26T02:51:35;92637.09;;;9.49;68.64
49545;BME280;74870;42.636;23.302;2024-02-26T02:54:01;92631.97;;;9.30;68.31
49545;BME280;74870;42.636;23.302;2024-02-26T02:56:26;92626.31;;;9.51;67.86
49545;BME280;74870;42.636;23.302;2024-02-26T02:58:52;92631.41;;;9.69;67.37
49545;BME280;74870;42.636;23.302;2024-02-26T03:01:17;92637.31;;;9.75;67.40
49545;BME280;74870;42.636;23.302;2024-02-26T03:03:42;92635.97;;;9.64;67.97
49545;BME280;74870;42.636;23.302;2024-02-26T03:06:08;92637.88;;;9.72;67.51
49545;BME280;74870;42.636;23.302;2024-02-26T03:08:33;92629.53;;;9.70;67.55
49545;BME280;74870;42.636;23.302;2024-02-26T03:11:03;92643.13;;;9.72;67.62
49545;BME280;74870;42.636;23.302;2024-02-26T03:13:29;92640.56;;;9.80;67.56
49545;BME280;74870;42.636;23.302;2024-02-26T03:15:54;92631.63;;;9.59;68.23
49545;BME280;74870;42.636;23.302;2024-02-26T03:18:20;92628.25;;;9.45;68.59
49545;BME280;74870;42.636;23.302;2024-02-26T03:20:45;92630.09;;;9.45;68.84
49545;BME280;74870;42.636;23.302;2024-02-26T03:23:11;92636.78;;;9.51;68.24
49545;BME280;74870;42.636;23.302;2024-02-26T03:25:42;92601.31;;;9.31;68.45
49545;BME280;74870;42.636;23.302;2024-02-26T03:28:07;92618.53;;;9.59;68.20
49545;BME280;74870;42.636;23.302;2024-02-26T03:30:33;92604.34;;;9.60;68.00
49545;BME280;74870;42.636;23.302;2024-02-26T03:32:58;92614.03;;;9.60;67.82
49545;BME280;74870;42.636;23.302;2024-02-26T03:35:24;92609.09;;;9.58;67.60
49545;BME280;74870;42.636;23.302;2024-02-26T03:37:49;92611.06;;;9.53;67.74
49545;BME280;74870;42.636;23.302;2024-02-26T03:40:16;92619.41;;;9.55;67.62
49545;BME280;74870;42.636;23.302;2024-02-26T03:42:43;92614.06;;;9.46;67.94
49545;BME280;74870;42.636;23.302;2024-02-26T03:45:09;92613.69;;;9.53;67.92
49545;BME280;74870;42.636;23.302;2024-02-26T03:47:35;92602.09;;;9.54;67.71
49545;BME280;74870;42.636;23.302;2024-02-26T03:50:00;92603.44;;;9.65;67.13
49545;BME280;74870;42.636;23.302;2024-02-26T03:52:25;92604.22;;;9.65;66.95
49545;BME280;74870;42.636;23.302;2024-02-26T03:54:51;92607.72;;;9.61;66.79
49545;BME280;74870;42.636;23.302;2024-02-26T03:57:16;92610.84;;;9.63;66.77
49545;BME280;74870;42.636;23.302;2024-02-26T03:59:42;92614.81;;;9.60;66.77
49545;BME280;74870;42.636;23.302;2024-02-26T04:02:07;92604.47;;;9.55;66.82
49545;BME280;74870;42.636;23.302;2024-02-26T04:04:35;92609.22;;;9.53;66.66
49545;BME280;74870;42.636;23.302;2024-02-26T04:07:01;92597.09;;;9.44;66.94
49545;BME280;74870;42.636;23.302;2024-02-26T04:09:26;92602.63;;;9.42;67.51
49545;BME280;74870;42.636;23.302;2024-02-26T04:11:52;92595.59;;;9.29;68.17
49545;BME280;74870;42.636;23.302;2024-02-26T04:14:17;92606.56;;;9.31;68.59
49545;BME280;74870;42.636;23.302;2024-02-26T04:16:42;92596.25;;;9.35;68.60
49545;BME280;74870;42.636;23.302;2024-02-26T04:19:08;92583.56;;;9.28;68.90
49545;BME280;74870;42.636;23.302;2024-02-26T04:21:34;92591.16;;;9.16;69.52
49545;BME280;74870;42.636;23.302;2024-02-26T04:23:59;92589.19;;;9.21;69.23
49545;BME280;74870;42.636;23.302;2024-02-26T04:26:27;92583.19;;;9.21;68.88
49545;BME280;74870;42.636;23.302;2024-02-26T04:28:53;92583.56;;;9.28;68.58
49545;BME280;74870;42.636;23.302;2024-02-26T04:31:19;92585.78;;;9.35;68.38
49545;BME280;74870;42.636;23.302;2024-02-26T04:33:44;92584.41;;;9.37;68.23
49545;BME280;74870;42.636;23.302;2024-02-26T04:36:14;92592.81;;;9.48;68.05
49545;BME280;74870;42.636;23.302;2024-02-26T04:38:41;92588.53;;;9.52;67.59
49545;BME280;74870;42.636;23.302;2024-02-26T04:41:06;92589.78;;;9.54;67.25
49545;BME280;74870;42.636;23.302;2024-02-26T04:43:31;92583.41;;;9.47;67.46
49545;BME280;74870;42.636;23.302;2024-02-26T04:45:57;92579.84;;;9.43;67.47
49545;BME280;74870;42.636;23.302;2024-02-26T04:48:22;92588.28;;;9.40;67.53
49545;BME280;74870;42.636;23.302;2024-02-26T04:50:48;92591.38;;;9.42;68.12
49545;BME280;74870;42.636;23.302;2024-02-26T04:53:13;92599.19;;;9.33;68.87
49545;BME280;74870;42.636;23.302;2024-02-26T04:55:39;92591.72;;;9.26;69.31
49545;BME280;74870;42.636;23.302;2024-02-26T04:58:04;92589.19;;;9.35;69.21
49545;BME280;74870;42.636;23.302;2024-02-26T05:00:29;92591.50;;;9.37;69.15
49545;BME280;74870;42.636;23.302;2024-02-26T05:02:55;92601.09;;;9.27;69.39
49545;BME280;74870;42.636;23.302;2024-02-26T05:05:20;92607.03;;;9.33;69.27
49545;BME280;74870;42.636;23.302;2024-02-26T05:07:46;92610.13;;;9.35;69.04
49545;BME280;74870;42.636;23.302;2024-02-26T05:10:11;92606.75;;;9.35;68.85
49545;BME280;74870;42.636;23.302;2024-02-26T05:12:36;92614.78;;;9.38;68.92
49545;BME280;74870;42.636;23.302;2024-02-26T05:15:03;92564.78;;;8.99;69.42
49545;BME280;74870;42.636;23.302;2024-02-26T05:17:28;92624.94;;;9.40;69.36
49545;BME280;74870;42.636;23.302;2024-02-26T05:19:54;92634.00;;;9.33;69.86
49545;BME280;74870;42.636;23.302;2024-02-26T05:22:20;92640.00;;;9.34;70.07
49545;BME280;74870;42.636;23.302;2024-02-26T05:24:45;92618.97;;;9.25;70.19
49545;BME280;74870;42.636;23.302;2024-02-26T05:27:10;92628.19;;;9.37;70.30
49545;BME280;74870;42.636;23.302;2024-02-26T05:29:37;92636.59;;;9.33;70.48
49545;BME280;74870;42.636;23.302;2024-02-26T05:32:03;92645.38;;;9.29;70.66
49545;BME280;74870;42.636;23.302;2024-02-26T05:34:28;92643.91;;;9.37;70.51
49545;BME280;74870;42.636;23.302;2024-02-26T05:36:55;92643.78;;;9.42;70.29
49545;BME280;74870;42.636;23.302;2024-02-26T05:39:20;92648.53;;;9.40;70.38
49545;BME280;74870;42.636;23.302;2024-02-26T05:41:46;92652.59;;;9.46;70.49
49545;BME280;74870;42.636;23.302;2024-02-26T05:44:12;92655.81;;;9.43;70.77
49545;BME280;74870;42.636;23.302;2024-02-26T05:46:37;92657.56;;;9.47;70.75
49545;BME280;74870;42.636;23.302;2024-02-26T05:49:02;92653.56;;;9.50;70.70
49545;BME280;74870;42.636;23.302;2024-02-26T05:51:28;92630.44;;;9.16;71.59
49545;BME280;74870;42.636;23.302;2024-02-26T05:53:53;92649.97;;;9.46;71.26
49545;BME280;74870;42.636;23.302;2024-02-26T05:56:22;92654.56;;;9.40;71.43
49545;BME280;74870;42.636;23.302;2024-02-26T05:58:48;92654.66;;;9.49;71.06
49545;BME280;74870;42.636;23.302;2024-02-26T06:01:15;92655.50;;;9.58;70.54
49545;BME280;74870;42.636;23.302;2024-02-26T06:03:41;92637.47;;;9.43;70.68
49545;BME280;74870;42.636;23.302;2024-02-26T06:06:06;92666.75;;;9.58;70.85
49545;BME280;74870;42.636;23.302;2024-02-26T06:08:31;92666.56;;;9.55;70.91
49545;BME280;74870;42.636;23.302;2024-02-26T06:10:57;92669.19;;;9.55;71.01
49545;BME280;74870;42.636;23.302;2024-02-26T06:13:22;92673.25;;;9.61;71.60
49545;BME280;74870;42.636;23.302;2024-02-26T06:15:48;92675.88;;;9.61;71.56
49545;BME280;74870;42.636;23.302;2024-02-26T06:18:17;92673.44;;;9.64;72.04
49545;BME280;74870;42.636;23.302;2024-02-26T06:20:42;92668.59;;;9.71;71.42
49545;BME280;74870;42.636;23.302;2024-02-26T06:23:08;92670.03;;;9.77;71.15
49545;BME280;74870;42.636;23.302;2024-02-26T06:25:33;92669.25;;;9.77;70.96
49545;BME280;74870;42.636;23.302;2024-02-26T06:27:59;92666.22;;;9.70;71.22
49545;BME280;74870;42.636;23.302;2024-02-26T06:30:24;92662.63;;;9.79;71.12
49545;BME280;74870;42.636;23.302;2024-02-26T06:32:50;92669.41;;;9.80;71.06
49545;BME280;74870;42.636;23.302;2024-02-26T06:35:15;92657.09;;;9.81;70.80
49545;BME280;74870;42.636;23.302;2024-02-26T06:37:40;92667.75;;;9.84;70.80
49545;BME280;74870;42.636;23.302;2024-02-26T06:40:06;92666.09;;;9.88;70.66
49545;BME280;74870;42.636;23.302;2024-02-26T06:42:35;92656.47;;;9.84;69.39
49545;BME280;74870;42.636;23.302;2024-02-26T06:45:01;92681.81;;;9.88;69.73
49545;BME280;74870;42.636;23.302;2024-02-26T06:47:26;92669.00;;;9.87;69.88
49545;BME280;74870;42.636;23.302;2024-02-26T06:49:51;92676.28;;;9.90;70.39
49545;BME280;74870;42.636;23.302;2024-02-26T06:52:17;92675.53;;;9.89;70.41
49545;BME280;74870;42.636;23.302;2024-02-26T06:54:42;92681.78;;;10.02;70.08
49545;BME280;74870;42.636;23.302;2024-02-26T06:57:08;92672.94;;;9.98;69.62
49545;BME280;74870;42.636;23.302;2024-02-26T06:59:33;92667.47;;;10.08;69.47
49545;BME280;74870;42.636;23.302;2024-02-26T07:01:58;92669.59;;;10.06;68.97
49545;BME280;74870;42.636;23.302;2024-02-26T07:04:24;92652.41;;;9.91;68.97
49545;BME280;74870;42.636;23.302;2024-02-26T07:06:49;92672.16;;;10.11;69.61
49545;BME280;74870;42.636;23.302;2024-02-26T07:09:15;92679.84;;;9.94;70.21
49545;BME280;74870;42.636;23.302;2024-02-26T07:11:41;92681.47;;;9.81;70.77
49545;BME280;74870;42.636;23.302;2024-02-26T07:14:10;92679.69;;;9.90;70.34
49545;BME280;74870;42.636;23.302;2024-02-26T07:16:36;92684.09;;;9.81;71.00
49545;BME280;74870;42.636;23.302;2024-02-26T07:19:01;92694.06;;;9.93;70.85
49545;BME280;74870;42.636;23.302;2024-02-26T07:21:27;92690.72;;;10.01;70.30
49545;BME280;74870;42.636;23.302;2024-02-26T07:23:53;92694.94;;;9.88;70.99
49545;BME280;74870;42.636;23.302;2024-02-26T07:26:18;92695.22;;;9.87;69.24
49545;BME280;74870;42.636;23.302;2024-02-26T07:28:44;92683.41;;;9.76;68.61
49545;BME280;74870;42.636;23.302;2024-02-26T07:31:10;92685.63;;;9.82;68.59
49545;BME280;74870;42.636;23.302;2024-02-26T07:33:35;92688.69;;;9.98;69.23
49545;BME280;74870;42.636;23.302;2024-02-26T07:36:00;92696.81;;;10.10;68.95
49545;BME280;74870;42.636;23.302;2024-02-26T07:38:26;92690.16;;;10.26;69.43
49545;BME280;74870;42.636;23.302;2024-02-26T07:40:51;92681.28;;;10.36;68.39
49545;BME280;74870;42.636;23.302;2024-02-26T07:43:16;92692.84;;;10.57;68.15
49545;BME280;74870;42.636;23.302;2024-02-26T07:45:42;92684.94;;;10.48;66.65
49545;BME280;74870;42.636;23.302;2024-02-26T07:48:07;92689.31;;;10.61;66.85
49545;BME280;74870;42.636;23.302;2024-02-26T07:50:33;92687.63;;;10.65;67.60
49545;BME280;74870;42.636;23.302;2024-02-26T07:52:58;92679.13;;;10.60;67.11
49545;BME280;74870;42.636;23.302;2024-02-26T07:55:24;92678.50;;;10.63;66.35
49545;BME280;74870;42.636;23.302;2024-02-26T07:57:49;92693.81;;;10.91;65.83
49545;BME280;74870;42.636;23.302;2024-02-26T08:00:15;92682.56;;;10.99;66.20
49545;BME280;74870;42.636;23.302;2024-02-26T08:02:42;92673.00;;;11.04;65.87
49545;BME280;74870;42.636;23.302;2024-02-26T08:05:08;92686.22;;;11.21;65.15
49545;BME280;74870;42.636;23.302;2024-02-26T08:07:33;92684.53;;;11.25;64.71
49545;BME280;74870;42.636;23.302;2024-02-26T08:09:59;92683.28;;;11.22;64.58
49545;BME280;74870;42.636;23.302;2024-02-26T08:12:24;92674.47;;;11.27;64.59
49545;BME280;74870;42.636;23.302;2024-02-26T08:14:50;92676.81;;;11.37;64.55
49545;BME280;74870;42.636;23.302;2024-02-26T08:17:15;92677.13;;;11.44;63.69
49545;BME280;74870;42.636;23.302;2024-02-26T08:19:40;92660.72;;;11.30;62.97
49545;BME280;74870;42.636;23.302;2024-02-26T08:22:06;92679.47;;;11.54;63.40
49545;BME280;74870;42.636;23.302;2024-02-26T08:24:31;92675.00;;;11.54;63.15
49545;BME280;74870;42.636;23.302;2024-02-26T08:26:56;92681.03;;;11.55;63.50
49545;BME280;74870;42.636;23.302;2024-02-26T08:29:22;92673.16;;;11.55;63.07
49545;BME280;74870;42.636;23.302;2024-02-26T08:31:47;92672.53;;;11.58;61.97
49545;BME280;74870;42.636;23.302;2024-02-26T08:34:14;92652.56;;;11.48;62.51
49545;BME280;74870;42.636;23.302;2024-02-26T08:36:39;92676.78;;;11.93;61.84
49545;BME280;74870;42.636;23.302;2024-02-26T08:39:05;92686.09;;;12.08;61.83
49545;BME280;74870;42.636;23.302;2024-02-26T08:41:30;92683.63;;;12.20;61.51
49545;BME280;74870;42.636;23.302;2024-02-26T08:43:56;92680.81;;;11.99;60.92
49545;BME280;74870;42.636;23.302;2024-02-26T08:46:23;92676.00;;;11.93;61.49
49545;BME280;74870;42.636;23.302;2024-02-26T08:48:48;92672.00;;;11.95;61.07
49545;BME280;74870;42.636;23.302;2024-02-26T08:51:14;92668.56;;;11.86;61.37
49545;BME280;74870;42.636;23.302;2024-02-26T08:53:40;92672.13;;;11.73;61.65
49545;BME280;74870;42.636;23.302;2024-02-26T08:56:05;92676.16;;;11.70;61.30
49545;BME280;74870;42.636;23.302;2024-02-26T08:58:31;92673.94;;;11.64;61.79
49545;BME280;74870;42.636;23.302;2024-02-26T09:00:56;92671.22;;;11.77;61.99
49545;BME280;74870;42.636;23.302;2024-02-26T09:03:22;92671.03;;;11.74;61.85
49545;BME280;74870;42.636;23.302;2024-02-26T09:05:48;92665.63;;;11.70;61.53
49545;BME280;74870;42.636;23.302;2024-02-26T09:08:13;92630.94;;;11.60;62.02
49545;BME280;74870;42.636;23.302;2024-02-26T09:10:39;92653.56;;;11.87;61.31
49545;BME280;74870;42.636;23.302;2024-02-26T09:13:05;92664.72;;;11.84;61.34
49545;BME280;74870;42.636;23.302;2024-02-26T09:15:31;92664.09;;;11.95;61.04
49545;BME280;74870;42.636;23.302;2024-02-26T09:17:56;92662.94;;;11.62;61.58
49545;BME280;74870;42.636;23.302;2024-02-26T09:20:22;92668.22;;;11.62;61.56
49545;BME280;74870;42.636;23.302;2024-02-26T09:22:49;92650.25;;;11.55;62.08
49545;BME280;74870;42.636;23.302;2024-02-26T09:25:14;92658.94;;;11.64;61.18
49545;BME280;74870;42.636;23.302;2024-02-26T09:27:46;92634.94;;;11.40;61.64
49545;BME280;74870;42.636;23.302;2024-02-26T09:30:12;92654.31;;;11.70;61.80
49545;BME280;74870;42.636;23.302;2024-02-26T09:32:38;92660.78;;;11.64;61.08
49545;BME280;74870;42.636;23.302;2024-02-26T09:35:05;92646.00;;;11.76;60.89
49545;BME280;74870;42.636;23.302;2024-02-26T09:37:31;92654.81;;;11.80;60.85
49545;BME280;74870;42.636;23.302;2024-02-26T09:39:57;92655.59;;;11.81;60.86
49545;BME280;74870;42.636;23.302;2024-02-26T09:42:25;92658.81;;;11.78;60.72
49545;BME280;74870;42.636;23.302;2024-02-26T09:44:53;92650.00;;;11.82;60.80
49545;BME280;74870;42.636;23.302;2024-02-26T09:47:23;92655.25;;;11.74;60.83
49545;BME280;74870;42.636;23.302;2024-02-26T09:49:53;92650.47;;;11.85;60.67
49545;BME280;74870;42.636;23.302;2024-02-26T09:52:19;92641.66;;;11.89;60.59
49545;BME280;74870;42.636;23.302;2024-02-26T09:54:48;92636.09;;;11.73;61.10
49545;BME280;74870;42.636;23.302;2024-02-26T09:57:15;92628.06;;;11.87;60.70
49545;BME280;74870;42.636;23.302;2024-02-26T09:59:43;92640.56;;;11.90;60.51
49545;BME280;74870;42.636;23.302;2024-02-26T10:02:12;92644.31;;;11.98;60.03
49545;BME280;74870;42.636;23.302;2024-02-26T10:04:39;92628.03;;;12.04;60.37
49545;BME280;74870;42.636;23.302;2024-02-26T10:07:10;92614.72;;;11.92;60.90
49545;BME280;74870;42.636;23.302;2024-02-26T10:09:35;92628.03;;;12.04;60.65
49545;BME280;74870;42.636;23.302;2024-02-26T10:12:01;92621.53;;;12.19;60.55
49545;BME280;74870;42.636;23.302;2024-02-26T10:14:26;92606.97;;;12.21;59.84
49545;BME280;74870;42.636;23.302;2024-02-26T10:16:52;92610.06;;;12.23;59.10
49545;BME280;74870;42.636;23.302;2024-02-26T10:19:30;92615.34;;;12.23;59.36
49545;BME280;74870;42.636;23.302;2024-02-26T10:22:00;92602.03;;;12.20;59.97
49545;BME280;74870;42.636;23.302;2024-02-26T10:24:29;92611.78;;;12.19;59.84
49545;BME280;74870;42.636;23.302;2024-02-26T10:26:56;92607.13;;;12.25;59.54
49545;BME280;74870;42.636;23.302;2024-02-26T10:29:23;92597.38;;;12.25;59.59
49545;BME280;74870;42.636;23.302;2024-02-26T10:31:51;92592.28;;;12.12;59.81
49545;BME280;74870;42.636;23.302;2024-02-26T10:34:17;92577.44;;;11.99;59.25
49545;BME280;74870;42.636;23.302;2024-02-26T10:36:43;92590.88;;;12.14;59.86
49545;BME280;74870;42.636;23.302;2024-02-26T10:39:09;92559.47;;;12.09;59.18
49545;BME280;74870;42.636;23.302;2024-02-26T10:41:36;92592.44;;;12.15;59.15
49545;BME280;74870;42.636;23.302;2024-02-26T10:44:02;92584.53;;;12.24;59.06
49545;BME280;74870;42.636;23.302;2024-02-26T10:46:27;92586.53;;;12.18;58.50
49545;BME280;74870;42.636;23.302;2024-02-26T10:48:54;92587.78;;;12.21;58.08
49545;BME280;74870;42.636;23.302;2024-02-26T10:51:25;92570.75;;;12.18;58.60
49545;BME280;74870;42.636;23.302;2024-02-26T10:53:58;92593.34;;;12.19;58.71
49545;BME280;74870;42.636;23.302;2024-02-26T10:56:28;92567.97;;;12.06;58.36
49545;BME280;74870;42.636;23.302;2024-02-26T10:58:57;92586.25;;;12.11;58.22
49545;BME280;74870;42.636;23.302;2024-02-26T11:01:24;92586.72;;;12.22;58.61
49545;BME280;74870;42.636;23.302;2024-02-26T11:03:51;92578.03;;;12.21;58.07
49545;BME280;74870;42.636;23.302;2024-02-26T11:06:21;92561.00;;;12.10;57.19
49545;BME280;74870;42.636;23.302;2024-02-26T11:08:50;92571.53;;;12.19;58.17
49545;BME280;74870;42.636;23.302;2024-02-26T11:11:17;92582.06;;;12.19;57.78
49545;BME280;74870;42.636;23.302;2024-02-26T11:13:45;92585.00;;;12.17;57.59
49545;BME280;74870;42.636;23.302;2024-02-26T11:16:16;92577.50;;;12.36;57.16
49545;BME280;74870;42.636;23.302;2024-02-26T11:18:41;92585.38;;;12.53;57.25
49545;BME280;74870;42.636;23.302;2024-02-26T11:21:07;92593.28;;;12.45;56.79
49545;BME280;74870;42.636;23.302;2024-02-26T11:23:34;92583.06;;;12.52;56.58
49545;BME280;74870;42.636;23.302;2024-02-26T11:26:06;92578.28;;;12.45;57.05
49545;BME280;74870;42.636;23.302;2024-02-26T11:28:33;92589.53;;;12.54;56.41
49545;BME280;74870;42.636;23.302;2024-02-26T11:31:00;92570.97;;;12.51;56.41
49545;BME280;74870;42.636;23.302;2024-02-26T11:33:27;92568.81;;;12.53;56.40
49545;BME280;74870;42.636;23.302;2024-02-26T11:35:53;92575.75;;;12.57;56.31
49545;BME280;74870;42.636;23.302;2024-02-26T11:38:21;92566.47;;;12.60;55.72
49545;BME280;74870;42.636;23.302;2024-02-26T11:40:47;92574.03;;;12.70;56.50
49545;BME280;74870;42.636;23.302;2024-02-26T11:43:13;92570.28;;;12.71;55.89
49545;BME280;74870;42.636;23.302;2024-02-26T11:48:10;92570.78;;;12.64;56.10
49545;BME280;74870;42.636;23.302;2024-02-26T11:50:39;92566.28;;;12.65;56.26
49545;BME280;74870;42.636;23.302;2024-02-26T11:58:41;92557.91;;;12.63;56.29
49545;BME280;74870;42.636;23.302;2024-02-26T12:01:48;92563.63;;;12.74;55.81
49545;BME280;74870;42.636;23.302;2024-02-26T12:06:50;92558.16;;;12.79;55.78
49545;BME280;74870;42.636;23.302;2024-02-26T12:09:41;92574.31;;;12.68;54.92
49545;BME280;74870;42.636;23.302;2024-02-26T12:12:13;92562.38;;;12.71;55.07
49545;BME280;74870;42.636;23.302;2024-02-26T12:14:53;92566.25;;;12.74;54.73
49545;BME280;74870;42.636;23.302;2024-02-26T12:17:22;92565.44;;;12.82;54.57
49545;BME280;74870;42.636;23.302;2024-02-26T12:19:48;92562.13;;;12.93;53.98
49545;BME280;74870;42.636;23.302;2024-02-26T12:22:14;92572.84;;;12.88;54.25
49545;BME280;74870;42.636;23.302;2024-02-26T12:24:41;92546.25;;;12.73;54.86
49545;BME280;74870;42.636;23.302;2024-02-26T12:27:06;92581.41;;;12.77;53.79
49545;BME280;74870;42.636;23.302;2024-02-26T12:29:31;92570.81;;;12.94;53.98
49545;BME280;74870;42.636;23.302;2024-02-26T12:31:57;92580.53;;;13.02;53.31
49545;BME280;74870;42.636;23.302;2024-02-26T12:34:23;92575.88;;;13.07;52.72
49545;BME280;74870;42.636;23.302;2024-02-26T12:36:48;92572.94;;;13.09;52.90
49545;BME280;74870;42.636;23.302;2024-02-26T12:39:14;92577.44;;;13.08;52.56
49545;BME280;74870;42.636;23.302;2024-02-26T12:41:40;92577.00;;;13.06;52.27
49545;BME280;74870;42.636;23.302;2024-02-26T12:44:05;92572.31;;;13.12;51.99
49545;BME280;74870;42.636;23.302;2024-02-26T12:46:32;92578.34;;;13.12;52.19
49545;BME280;74870;42.636;23.302;2024-02-26T12:48:58;92575.22;;;13.19;52.21
49545;BME280;74870;42.636;23.302;2024-02-26T12:51:25;92549.88;;;13.26;52.18
49545;BME280;74870;42.636;23.302;2024-02-26T12:53:52;92568.59;;;13.33;51.52
49545;BME280;74870;42.636;23.302;2024-02-26T12:56:19;92578.06;;;13.34;51.34
49545;BME280;74870;42.636;23.302;2024-02-26T12:58:45;92559.94;;;13.33;51.28
49545;BME280;74870;42.636;23.302;2024-02-26T13:01:14;92566.28;;;13.32;50.82